createdAt,value
2019-02-14T00:00:39.091Z,97379.47
2019-02-14T00:03:27.503Z,97372.94
2019-02-14T00:06:16.619Z,97377.89
2019-02-14T00:09:06.835Z,97384.53
2019-02-14T00:11:55.419Z,97386.39
2019-02-14T00:14:44.239Z,97382.50
2019-02-14T00:17:32.917Z,97384.64
2019-02-14T00:20:21.338Z,97381.69
2019-02-14T00:23:09.919Z,97385.41
2019-02-14T00:25:58.693Z,97382.18
2019-02-14T00:28:47.352Z,97390.45
2019-02-14T00:31:36.368Z,97391.22
2019-02-14T00:34:26.401Z,97387.72
2019-02-14T00:37:15.616Z,97381.64
2019-02-14T00:40:04.563Z,97373.60
2019-02-14T00:42:53.486Z,97370.02
2019-02-14T00:45:42.723Z,97369.67
2019-02-14T00:48:31.386Z,97368.98
2019-02-14T00:51:20.731Z,97367.23
2019-02-14T00:54:09.627Z,97373.60
2019-02-14T00:56:58.494Z,97370.61
2019-02-14T00:59:47.739Z,97373.52
2019-02-14T01:02:36.855Z,97368.34
2019-02-14T01:05:33.107Z,97370.84
2019-02-14T01:08:15.434Z,97387.14
2019-02-14T01:11:04.001Z,97386.55
2019-02-14T01:13:52.636Z,97378.02
2019-02-14T01:16:41.287Z,97373.87
2019-02-14T01:19:29.598Z,97366.13
2019-02-14T01:22:19.232Z,97359.95
2019-02-14T01:25:07.495Z,97357.52
2019-02-14T01:27:56.564Z,97345.62
2019-02-14T01:30:45.739Z,97345.08
2019-02-14T01:33:34.475Z,97336.87
2019-02-14T01:36:23.968Z,97336.62
2019-02-14T01:39:12.389Z,97343.82
2019-02-14T01:42:01.970Z,97342.41
2019-02-14T01:44:50.537Z,97341.48
2019-02-14T01:47:39.499Z,97346.86
2019-02-14T01:50:27.621Z,97343.13
2019-02-14T01:53:16.161Z,97328.26
2019-02-14T01:56:05.118Z,97325.47
2019-02-14T01:58:54.472Z,97317.85
2019-02-14T02:01:43.319Z,97317.85
2019-02-14T02:04:32.337Z,97310.03
2019-02-14T02:07:21.411Z,97311.44
2019-02-14T02:10:11.552Z,97304.78
2019-02-14T02:13:00.439Z,97313.76
2019-02-14T02:15:48.995Z,97309.83
2019-02-14T02:18:39.436Z,97309.95
2019-02-14T02:21:28.159Z,97309.27
2019-02-14T02:24:16.745Z,97303.40
2019-02-14T02:27:05.120Z,97303.56
2019-02-14T02:29:54.549Z,97300.48
2019-02-14T02:32:43.579Z,97297.97
2019-02-14T02:35:32.577Z,97301.00
2019-02-14T02:38:21.404Z,97295.27
2019-02-14T02:41:10.334Z,97297.38
2019-02-14T02:43:59.009Z,97307.94
2019-02-14T02:46:48.006Z,97313.07
2019-02-14T02:49:36.712Z,97322.91
2019-02-14T02:52:25.465Z,97315.63
2019-02-14T02:55:14.056Z,97324.66
2019-02-14T02:58:02.842Z,97325.55
2019-02-14T03:00:52.213Z,97320.66
2019-02-14T03:03:40.767Z,97320.02
2019-02-14T03:06:29.897Z,97317.41
2019-02-14T03:09:18.554Z,97324.98
2019-02-14T03:12:07.132Z,97330.84
2019-02-14T03:14:55.455Z,97334.42
2019-02-14T03:17:44.076Z,97336.30
2019-02-14T03:20:33.091Z,97333.19
2019-02-14T03:23:22.218Z,97331.49
2019-02-14T03:26:10.775Z,97340.34
2019-02-14T03:28:59.398Z,97340.22
2019-02-14T03:31:47.730Z,97342.32
2019-02-14T03:34:36.394Z,97348.86
2019-02-14T03:37:25.514Z,97349.33
2019-02-14T03:40:14.594Z,97347.45
2019-02-14T03:43:03.385Z,97348.73
2019-02-14T03:45:51.527Z,97357.41
2019-02-14T03:48:40.468Z,97358.64
2019-02-14T03:51:29.395Z,97364.52
2019-02-14T03:54:18.312Z,97374.72
2019-02-14T03:57:06.670Z,97371.81
2019-02-14T03:59:54.932Z,97364.16
2019-02-14T04:02:43.821Z,97358.69
2019-02-14T04:05:32.064Z,97357.06
2019-02-14T04:08:20.926Z,97356.55
2019-02-14T04:11:09.892Z,97360.05
2019-02-14T04:13:58.862Z,97364.41
2019-02-14T04:16:47.664Z,97368.69
2019-02-14T04:19:36.867Z,97365.66
2019-02-14T04:22:26.010Z,97374.64
2019-02-14T04:25:15.108Z,97371.73
2019-02-14T04:28:03.546Z,97367.28
2019-02-14T04:30:52.118Z,97361.46
2019-02-14T04:33:40.583Z,97357.59
2019-02-14T04:36:35.885Z,97356.98
2019-02-14T04:39:19.145Z,97346.02
2019-02-14T04:42:07.477Z,97352.59
2019-02-14T04:44:56.294Z,97346.73
2019-02-14T04:47:45.410Z,97341.26
2019-02-14T04:50:34.210Z,97338.94
2019-02-14T04:53:23.735Z,97336.55
2019-02-14T04:56:12.996Z,97345.97
2019-02-14T04:59:01.419Z,97346.55
2019-02-14T05:01:49.940Z,97347.45
2019-02-14T05:04:38.156Z,97357.36
2019-02-14T05:07:26.512Z,97360.45
2019-02-14T05:10:15.136Z,97362.63
2019-02-14T05:13:03.891Z,97366.39
2019-02-14T05:15:52.728Z,97365.11
2019-02-14T05:18:41.826Z,97380.33
2019-02-14T05:21:30.292Z,97383.83
2019-02-14T05:24:18.854Z,97384.89
2019-02-14T05:27:07.382Z,97380.70
2019-02-14T05:29:56.114Z,97376.52
2019-02-14T05:32:45.289Z,97382.58
2019-02-14T05:35:34.190Z,97385.14
2019-02-14T05:38:22.860Z,97387.36
2019-02-14T05:41:11.049Z,97383.86
2019-02-14T05:43:59.697Z,97394.00
2019-02-14T05:46:48.458Z,97402.30
2019-02-14T05:49:37.539Z,97409.95
2019-02-14T05:52:26.532Z,97404.95
2019-02-14T05:55:15.173Z,97400.88
2019-02-14T05:58:03.799Z,97405.33
2019-02-14T06:00:52.083Z,97402.46
2019-02-14T06:03:41.154Z,97399.88
2019-02-14T06:06:30.065Z,97399.14
2019-02-14T06:09:19.069Z,97399.66
2019-02-14T06:12:07.635Z,97400.94
2019-02-14T06:14:55.987Z,97402.42
2019-02-14T06:17:45.236Z,97406.78
2019-02-14T06:20:34.464Z,97408.62
2019-02-14T06:23:23.178Z,97415.99
2019-02-14T06:26:12.017Z,97413.87
2019-02-14T06:29:00.178Z,97410.22
2019-02-14T06:31:49.062Z,97407.89
2019-02-14T06:34:37.512Z,97403.88
2019-02-14T06:37:26.552Z,97416.45
2019-02-14T06:40:15.446Z,97428.12
2019-02-14T06:43:04.326Z,97439.84
2019-02-14T06:45:52.665Z,97442.53
2019-02-14T06:48:41.244Z,97440.17
2019-02-14T06:51:30.376Z,97439.15
2019-02-14T06:54:19.169Z,97443.13
2019-02-14T06:57:07.864Z,97449.70
2019-02-14T06:59:56.887Z,97451.84
2019-02-14T07:02:45.870Z,97457.84
2019-02-14T07:05:34.458Z,97447.14
2019-02-14T07:08:22.807Z,97457.48
2019-02-14T07:11:11.517Z,97452.00
2019-02-14T07:13:59.951Z,97451.78
2019-02-14T07:16:48.744Z,97453.80
2019-02-14T07:19:37.561Z,97454.86
2019-02-14T07:22:25.702Z,97450.67
2019-02-14T07:25:14.423Z,97459.31
2019-02-14T07:28:03.603Z,97460.80
2019-02-14T07:30:51.834Z,97464.90
2019-02-14T07:33:40.901Z,97444.90
2019-02-14T07:36:30.079Z,97452.39
2019-02-14T07:39:18.922Z,97464.52
2019-02-14T07:42:07.999Z,97464.81
2019-02-14T07:44:57.350Z,97468.10
2019-02-14T07:47:45.885Z,97467.53
2019-02-14T07:50:34.480Z,97465.75
2019-02-14T07:53:23.291Z,97461.91
2019-02-14T07:56:12.419Z,97465.66
2019-02-14T07:59:01.523Z,97466.72
2019-02-14T08:01:50.243Z,97464.15
2019-02-14T08:04:39.363Z,97461.34
2019-02-14T08:07:35.464Z,97459.42
2019-02-14T08:10:17.611Z,97460.81
2019-02-14T08:13:05.945Z,97457.00
2019-02-14T08:15:54.916Z,97457.36
2019-02-14T08:18:43.614Z,97445.89
2019-02-14T08:21:32.196Z,97444.69
2019-02-14T08:24:20.998Z,97428.58
2019-02-14T08:27:09.762Z,97438.67
2019-02-14T08:29:58.696Z,97433.64
2019-02-14T08:32:47.546Z,97440.38
2019-02-14T08:35:36.229Z,97452.06
2019-02-14T08:38:25.055Z,97452.80
2019-02-14T08:41:13.946Z,97443.20
2019-02-14T08:44:02.643Z,97445.61
2019-02-14T08:46:51.176Z,97451.96
2019-02-14T08:49:39.442Z,97459.98
2019-02-14T08:52:28.037Z,97469.20
2019-02-14T08:55:17.012Z,97472.05
2019-02-14T08:58:05.890Z,97466.62
2019-02-14T09:00:54.306Z,97468.94
2019-02-14T09:03:43.402Z,97466.19
2019-02-14T09:06:32.189Z,97469.87
2019-02-14T09:09:20.816Z,97474.06
2019-02-14T09:12:09.936Z,97466.77
2019-02-14T09:14:58.928Z,97458.92
2019-02-14T09:17:47.864Z,97457.91
2019-02-14T09:20:36.739Z,97459.58
2019-02-14T09:23:25.809Z,97454.74
2019-02-14T09:26:14.525Z,97454.54
2019-02-14T09:29:03.338Z,97451.52
2019-02-14T09:31:57.232Z,97450.40
2019-02-14T09:34:46.502Z,97454.17
2019-02-14T09:37:36.330Z,97449.79
2019-02-14T09:40:25.448Z,97454.72
2019-02-14T09:43:14.307Z,97451.40
2019-02-14T09:46:02.979Z,97446.77
2019-02-14T09:48:51.085Z,97448.78
2019-02-14T09:51:39.868Z,97439.13
2019-02-14T09:54:28.384Z,97435.88
2019-02-14T09:57:17.069Z,97428.88
2019-02-14T10:00:07.968Z,97430.36
2019-02-14T10:02:56.802Z,97442.23
2019-02-14T10:05:45.678Z,97443.34
2019-02-14T10:08:34.256Z,97436.02
2019-02-14T10:11:23.117Z,97438.16
2019-02-14T10:14:11.969Z,97450.13
2019-02-14T10:17:01.074Z,97447.48
2019-02-14T10:19:50.138Z,97435.28
2019-02-14T10:22:38.637Z,97441.50
2019-02-14T10:25:27.707Z,97451.85
2019-02-14T10:28:16.012Z,97440.77
2019-02-14T10:31:04.691Z,97443.34
2019-02-14T10:33:53.065Z,97447.63
2019-02-14T10:36:41.783Z,97441.35
2019-02-14T10:39:32.623Z,97439.47
2019-02-14T10:42:21.540Z,97435.88
2019-02-14T10:45:12.826Z,97433.86
2019-02-14T10:48:01.526Z,97430.52
2019-02-14T10:50:49.614Z,97425.36
2019-02-14T10:53:37.995Z,97424.20
2019-02-14T10:56:26.677Z,97417.63
2019-02-14T10:59:15.499Z,97410.78
2019-02-14T11:02:05.481Z,97405.36
2019-02-14T11:04:54.566Z,97418.73
2019-02-14T11:07:43.710Z,97423.61
2019-02-14T11:10:32.849Z,97422.95
2019-02-14T11:13:23.414Z,97417.03
2019-02-14T11:16:12.396Z,97406.85
2019-02-14T11:19:01.683Z,97405.83
2019-02-14T11:21:50.521Z,97392.53
2019-02-14T11:24:39.153Z,97383.20
2019-02-14T11:27:27.727Z,97381.56
2019-02-14T11:30:16.724Z,97381.25
2019-02-14T11:33:05.936Z,97373.30
2019-02-14T11:35:55.019Z,97366.47
2019-02-14T11:38:43.674Z,97359.80
2019-02-14T11:41:32.575Z,97358.97
2019-02-14T11:44:21.424Z,97353.06
2019-02-14T11:47:10.111Z,97352.42
2019-02-14T11:49:59.499Z,97353.27
2019-02-14T11:52:48.689Z,97352.98
2019-02-14T11:55:39.368Z,97354.40
2019-02-14T11:58:28.242Z,97345.25
2019-02-14T12:01:16.947Z,97347.48
2019-02-14T12:04:06.349Z,97344.44
2019-02-14T12:06:54.909Z,97334.88
2019-02-14T12:09:43.453Z,97338.37
2019-02-14T12:12:32.598Z,97342.29
2019-02-14T12:15:23.134Z,97340.54
2019-02-14T12:18:11.123Z,97336.15
2019-02-14T12:20:59.510Z,97333.48
2019-02-14T12:23:48.236Z,97338.23
2019-02-14T12:26:36.855Z,97341.74
2019-02-14T12:29:25.719Z,97338.74
2019-02-14T12:32:14.200Z,97333.60
2019-02-14T12:35:03.779Z,97314.45
2019-02-14T12:37:53.021Z,97315.72
2019-02-14T12:40:41.447Z,97319.16
2019-02-14T12:43:30.175Z,97328.98
2019-02-14T12:46:18.867Z,97330.30
2019-02-14T12:49:07.602Z,97327.91
2019-02-14T12:51:56.532Z,97320.17
2019-02-14T12:54:45.428Z,97321.67
2019-02-14T12:57:35.409Z,97321.66
2019-02-14T13:00:24.324Z,97312.25
2019-02-14T13:03:12.858Z,97300.34
2019-02-14T13:06:01.370Z,97292.12
2019-02-14T13:08:50.347Z,97280.70
2019-02-14T13:11:39.354Z,97281.81
2019-02-14T13:14:28.236Z,97270.09
2019-02-14T13:17:17.126Z,97272.11
2019-02-14T13:20:06.269Z,97270.98
2019-02-14T13:22:54.534Z,97267.10
2019-02-14T13:25:43.475Z,97266.13
2019-02-14T13:28:32.887Z,97263.27
2019-02-14T13:31:31.277Z,97263.27
2019-02-14T13:34:12.120Z,97245.13
2019-02-14T13:37:02.105Z,97245.13
2019-02-14T13:39:51.482Z,97259.00
2019-02-14T13:42:39.902Z,97256.34
2019-02-14T13:45:28.550Z,97257.47
2019-02-14T13:48:16.854Z,97257.47
2019-02-14T13:51:05.515Z,97260.63
2019-02-14T13:53:53.723Z,97257.58
2019-02-14T13:56:42.938Z,97254.00
2019-02-14T13:59:32.243Z,97262.59
2019-02-14T14:02:20.905Z,97262.59
2019-02-14T14:05:09.755Z,97258.13
2019-02-14T14:07:58.679Z,97258.13
2019-02-14T14:10:47.464Z,97258.89
2019-02-14T14:13:36.686Z,97258.89
2019-02-14T14:16:25.877Z,97264.66
2019-02-14T14:19:14.444Z,97264.59
2019-02-14T14:22:03.499Z,97262.72
2019-02-14T14:24:52.083Z,97271.02
2019-02-14T14:27:40.569Z,97271.81
2019-02-14T14:30:27.817Z,97269.20
2019-02-14T14:33:16.899Z,97272.45
2019-02-14T14:36:05.963Z,97284.38
2019-02-14T14:38:54.971Z,97271.33
2019-02-14T14:41:43.232Z,97269.59
2019-02-14T14:44:46.497Z,97273.17
2019-02-14T14:47:35.428Z,97275.81
2019-02-14T14:50:24.565Z,97272.41
2019-02-14T14:53:12.921Z,97280.36
2019-02-14T14:56:01.902Z,97269.06
2019-02-14T14:58:51.136Z,97259.95
2019-02-14T15:01:39.715Z,97268.66
2019-02-14T15:04:28.866Z,97260.84
2019-02-14T15:07:18.035Z,97252.61
2019-02-14T15:10:06.632Z,97256.98
2019-02-14T15:12:55.876Z,97257.89
2019-02-14T15:15:44.741Z,97257.44
2019-02-14T15:18:33.793Z,97252.23
2019-02-14T15:21:22.469Z,97253.98
2019-02-14T15:24:10.820Z,97251.37
2019-02-14T15:26:59.825Z,97244.85
2019-02-14T15:29:49.167Z,97242.68
2019-02-14T15:32:37.410Z,97248.34
2019-02-14T15:35:26.587Z,97257.00
2019-02-14T15:38:15.425Z,97248.30
2019-02-14T15:41:04.180Z,97238.73
2019-02-14T15:43:52.940Z,97247.45
2019-02-14T15:46:41.928Z,97241.35
2019-02-14T15:49:30.504Z,97239.18
2019-02-14T15:52:19.614Z,97249.20
2019-02-14T15:55:08.385Z,97244.84
2019-02-14T15:57:57.475Z,97246.11
2019-02-14T16:00:46.517Z,97243.52
2019-02-14T16:03:35.218Z,97247.38
2019-02-14T16:06:26.069Z,97259.97
2019-02-14T16:09:16.512Z,97266.48
2019-02-14T16:12:05.403Z,97259.89
2019-02-14T16:14:54.099Z,97262.85
2019-02-14T16:17:43.171Z,97261.07
2019-02-14T16:20:31.885Z,97259.29
2019-02-14T16:23:20.787Z,97267.90
2019-02-14T16:26:09.846Z,97264.38
2019-02-14T16:29:01.055Z,97260.44
2019-02-14T16:31:48.548Z,97255.17
2019-02-14T16:34:37.756Z,97249.91
2019-02-14T16:37:26.992Z,97251.14
2019-02-14T16:40:15.486Z,97265.81
2019-02-14T16:43:04.406Z,97271.34
2019-02-14T16:45:53.434Z,97266.44
2019-02-14T16:48:42.651Z,97271.01
2019-02-14T16:51:31.582Z,97273.84
2019-02-14T16:54:20.405Z,97280.14
2019-02-14T16:57:09.292Z,97282.94
2019-02-14T16:59:57.981Z,97279.31
2019-02-14T17:02:47.011Z,97277.38
2019-02-14T17:05:36.249Z,97272.00
2019-02-14T17:08:24.581Z,97274.06
2019-02-14T17:11:13.246Z,97278.64
2019-02-14T17:14:01.832Z,97278.06
2019-02-14T17:16:50.838Z,97280.92
2019-02-14T17:19:39.819Z,97288.97
2019-02-14T17:22:28.201Z,97283.19
2019-02-14T17:25:17.392Z,97284.34
2019-02-14T17:28:06.635Z,97289.88
2019-02-14T17:30:55.681Z,97286.34
2019-02-14T17:33:44.662Z,97291.83
2019-02-14T17:36:33.393Z,97289.94
2019-02-14T17:39:22.278Z,97301.82
2019-02-14T17:42:11.374Z,97306.84
2019-02-14T17:45:00.524Z,97310.95
2019-02-14T17:47:49.750Z,97321.09
2019-02-14T17:50:38.262Z,97324.00
2019-02-14T17:53:26.855Z,97316.91
2019-02-14T17:56:16.005Z,97322.34
2019-02-14T17:59:04.800Z,97321.28
2019-02-14T18:01:53.267Z,97332.34
2019-02-14T18:04:42.212Z,97333.01
2019-02-14T18:07:31.219Z,97324.75
2019-02-14T18:10:20.620Z,97321.47
2019-02-14T18:13:09.795Z,97320.64
2019-02-14T18:15:59.452Z,97325.81
2019-02-14T18:18:49.354Z,97321.23
2019-02-14T18:21:38.676Z,97320.22
2019-02-14T18:24:27.890Z,97326.48
2019-02-14T18:27:16.440Z,97327.13
2019-02-14T18:30:06.435Z,97332.09
2019-02-14T18:32:55.312Z,97337.50
2019-02-14T18:35:43.990Z,97333.10
2019-02-14T18:38:33.238Z,97324.44
2019-02-14T18:41:22.153Z,97316.69
2019-02-14T18:44:11.280Z,97314.61
2019-02-14T18:47:00.070Z,97308.94
2019-02-14T18:49:49.433Z,97308.91
2019-02-14T18:52:39.203Z,97306.64
2019-02-14T18:55:28.620Z,97294.30
2019-02-14T18:58:26.002Z,97297.89
2019-02-14T19:01:08.123Z,97294.70
2019-02-14T19:03:57.129Z,97287.28
2019-02-14T19:06:47.172Z,97285.62
2019-02-14T19:09:36.386Z,97288.66
2019-02-14T19:12:25.936Z,97287.82
2019-02-14T19:15:15.125Z,97283.42
2019-02-14T19:18:04.085Z,97285.98
2019-02-14T19:20:53.258Z,97277.09
2019-02-14T19:23:42.366Z,97287.22
2019-02-14T19:26:31.382Z,97295.23
2019-02-14T19:29:20.951Z,97294.64
2019-02-14T19:32:10.338Z,97292.28
2019-02-14T19:34:59.416Z,97292.14
2019-02-14T19:37:48.369Z,97295.93
2019-02-14T19:40:36.831Z,97305.26
2019-02-14T19:43:25.802Z,97299.45
2019-02-14T19:46:14.202Z,97300.23
2019-02-14T19:49:02.923Z,97297.16
2019-02-14T19:51:52.072Z,97297.63
2019-02-14T19:54:41.296Z,97296.79
2019-02-14T19:57:30.232Z,97291.28
2019-02-14T20:00:19.278Z,97296.88
2019-02-14T20:03:08.019Z,97293.00
2019-02-14T20:05:57.067Z,97302.23
2019-02-14T20:08:45.952Z,97306.23
2019-02-14T20:11:37.164Z,97297.41
2019-02-14T20:14:25.922Z,97300.12
2019-02-14T20:17:15.441Z,97295.97
2019-02-14T20:20:04.159Z,97298.73
2019-02-14T20:22:52.825Z,97295.55
2019-02-14T20:25:41.315Z,97298.50
2019-02-14T20:28:30.487Z,97302.48
2019-02-14T20:31:19.627Z,97298.07
2019-02-14T20:34:08.464Z,97303.50
2019-02-14T20:36:57.484Z,97295.68
2019-02-14T20:39:46.555Z,97295.28
2019-02-14T20:42:35.824Z,97292.73
2019-02-14T20:45:25.159Z,97298.05
2019-02-14T20:48:15.128Z,97291.91
2019-02-14T20:51:03.992Z,97290.53
2019-02-14T20:53:53.317Z,97292.34
2019-02-14T20:56:42.048Z,97288.56
2019-02-14T20:59:31.336Z,97290.71
2019-02-14T21:02:19.822Z,97288.23
2019-02-14T21:05:08.912Z,97289.86
2019-02-14T21:07:58.190Z,97289.70
2019-02-14T21:10:47.138Z,97292.98
2019-02-14T21:13:35.910Z,97292.06
2019-02-14T21:16:25.088Z,97297.51
2019-02-14T21:19:14.169Z,97295.76
2019-02-14T21:22:04.481Z,97291.59
2019-02-14T21:24:53.019Z,97289.42
2019-02-14T21:27:42.171Z,97293.64
2019-02-14T21:30:35.045Z,97287.81
2019-02-14T21:33:22.482Z,97295.47
2019-02-14T21:36:11.420Z,97286.00
2019-02-14T21:39:01.479Z,97291.48
2019-02-14T21:41:50.082Z,97289.58
2019-02-14T21:44:39.449Z,97286.14
2019-02-14T21:47:27.902Z,97285.78
2019-02-14T21:50:16.835Z,97286.44
2019-02-14T21:53:06.128Z,97290.11
2019-02-14T21:55:55.206Z,97293.31
2019-02-14T21:58:43.933Z,97300.00
2019-02-14T22:01:32.850Z,97298.16
2019-02-14T22:04:21.893Z,97296.80
2019-02-14T22:07:10.873Z,97291.27
2019-02-14T22:09:59.948Z,97295.13
2019-02-14T22:12:48.916Z,97292.84
2019-02-14T22:15:37.765Z,97295.74
2019-02-14T22:18:26.229Z,97290.96
2019-02-14T22:21:14.885Z,97294.85
2019-02-14T22:24:04.052Z,97291.52
2019-02-14T22:26:52.729Z,97290.34
2019-02-14T22:29:41.152Z,97287.86
2019-02-14T22:32:29.829Z,97289.16
2019-02-14T22:35:18.576Z,97290.90
2019-02-14T22:38:07.911Z,97289.52
2019-02-14T22:40:57.234Z,97295.18
2019-02-14T22:43:46.288Z,97298.66
2019-02-14T22:46:34.821Z,97303.14
2019-02-14T22:49:23.728Z,97297.64
2019-02-14T22:52:12.791Z,97301.10
2019-02-14T22:55:01.125Z,97304.53
2019-02-14T22:57:50.029Z,97292.94
2019-02-14T23:00:42.633Z,97285.91
2019-02-14T23:03:30.753Z,97297.69
2019-02-14T23:06:19.215Z,97288.01
2019-02-14T23:09:10.207Z,97293.22
2019-02-14T23:11:58.775Z,97294.97
2019-02-14T23:14:47.992Z,97303.25
2019-02-14T23:17:38.930Z,97300.89
2019-02-14T23:20:27.658Z,97294.10
2019-02-14T23:23:16.236Z,97293.18
2019-02-14T23:26:05.250Z,97294.75
2019-02-14T23:28:54.033Z,97289.76
2019-02-14T23:31:43.197Z,97288.47
2019-02-14T23:34:31.573Z,97289.30
2019-02-14T23:37:20.007Z,97291.97
2019-02-14T23:40:09.371Z,97287.66
2019-02-14T23:43:04.446Z,97294.05
2019-02-14T23:45:48.455Z,97287.20
2019-02-14T23:48:36.953Z,97283.95
2019-02-14T23:51:25.540Z,97283.95
2019-02-14T23:54:13.821Z,97276.41
2019-02-14T23:57:03.019Z,97279.09
2019-02-14T23:59:51.133Z,97271.09
